sensor_id;sensor_type;location;lat;lon;timestamp;pressure;altitude;pressure_sealevel;temperature;humidity
21401;BME280;18038;50.166;18.908;2022-07-23T00:00:17;98061.66;;;21.35;53.60
21401;BME280;18038;50.166;18.908;2022-07-23T00:03:33;98064.06;;;21.31;53.07
21401;BME280;18038;50.166;18.908;2022-07-23T00:06:52;98055.34;;;21.24;52.68
21401;BME280;18038;50.166;18.908;2022-07-23T00:09:59;98049.94;;;21.24;53.74
21401;BME280;18038;50.166;18.908;2022-07-23T00:13:18;98064.03;;;21.26;52.79
21401;BME280;18038;50.166;18.908;2022-07-23T00:16:30;98061.88;;;21.28;53.13
21401;BME280;18038;50.166;18.908;2022-07-23T00:19:36;98053.16;;;21.21;53.12
21401;BME280;18038;50.166;18.908;2022-07-23T00:22:48;98057.22;;;21.13;53.68
21401;BME280;18038;50.166;18.908;2022-07-23T00:25:56;98059.63;;;21.15;53.38
21401;BME280;18038;50.166;18.908;2022-07-23T00:29:04;98050.38;;;21.06;53.14
21401;BME280;18038;50.166;18.908;2022-07-23T00:32:09;98056.81;;;20.95;53.74
21401;BME280;18038;50.166;18.908;2022-07-23T00:35:29;98057.09;;;20.93;54.22
21401;BME280;18038;50.166;18.908;2022-07-23T00:38:39;98054.84;;;20.85;54.69
21401;BME280;18038;50.166;18.908;2022-07-23T00:41:47;98062.47;;;20.88;54.46
21401;BME280;18038;50.166;18.908;2022-07-23T00:44:53;98062.41;;;20.78;54.82
21401;BME280;18038;50.166;18.908;2022-07-23T00:47:59;98061.06;;;20.80;54.63
21401;BME280;18038;50.166;18.908;2022-07-23T00:51:15;98065.41;;;20.81;54.45
21401;BME280;18038;50.166;18.908;2022-07-23T00:54:26;98066.25;;;20.82;53.64
21401;BME280;18038;50.166;18.908;2022-07-23T00:57:36;98065.13;;;20.78;54.38
21401;BME280;18038;50.166;18.908;2022-07-23T01:00:51;98064.25;;;20.72;54.68
21401;BME280;18038;50.166;18.908;2022-07-23T01:03:57;98061.47;;;20.67;54.84
21401;BME280;18038;50.166;18.908;2022-07-23T01:07:07;98062.53;;;20.61;54.91
21401;BME280;18038;50.166;18.908;2022-07-23T01:10:16;98061.69;;;20.60;55.48
21401;BME280;18038;50.166;18.908;2022-07-23T01:13:40;98064.06;;;20.52;55.08
21401;BME280;18038;50.166;18.908;2022-07-23T01:16:49;98064.50;;;20.38;55.52
21401;BME280;18038;50.166;18.908;2022-07-23T01:19:55;98065.28;;;20.34;55.50
21401;BME280;18038;50.166;18.908;2022-07-23T01:23:09;98059.88;;;20.39;54.94
21401;BME280;18038;50.166;18.908;2022-07-23T01:26:21;98064.41;;;20.28;55.18
21401;BME280;18038;50.166;18.908;2022-07-23T01:29:27;98056.78;;;20.25;55.53
21401;BME280;18038;50.166;18.908;2022-07-23T01:32:41;98050.31;;;20.26;55.68
21401;BME280;18038;50.166;18.908;2022-07-23T01:35:47;98049.22;;;20.27;55.60
21401;BME280;18038;50.166;18.908;2022-07-23T01:39:16;98048.13;;;20.28;55.78
21401;BME280;18038;50.166;18.908;2022-07-23T01:42:26;98059.56;;;20.30;55.18
21401;BME280;18038;50.166;18.908;2022-07-23T01:45:32;98053.78;;;20.21;55.17
21401;BME280;18038;50.166;18.908;2022-07-23T01:48:38;98054.59;;;20.22;54.48
21401;BME280;18038;50.166;18.908;2022-07-23T01:52:03;98056.50;;;20.21;53.68
21401;BME280;18038;50.166;18.908;2022-07-23T01:55:21;98051.84;;;20.17;53.96
21401;BME280;18038;50.166;18.908;2022-07-23T01:58:32;98058.69;;;20.24;54.94
21401;BME280;18038;50.166;18.908;2022-07-23T02:01:38;98047.56;;;20.21;55.37
21401;BME280;18038;50.166;18.908;2022-07-23T02:04:44;98051.38;;;20.25;54.65
21401;BME280;18038;50.166;18.908;2022-07-23T02:07:51;98055.41;;;20.22;55.45
21401;BME280;18038;50.166;18.908;2022-07-23T02:11:06;98049.94;;;20.17;55.40
21401;BME280;18038;50.166;18.908;2022-07-23T02:14:12;98049.06;;;20.12;55.10
21401;BME280;18038;50.166;18.908;2022-07-23T02:17:18;98048.00;;;20.13;55.99
21401;BME280;18038;50.166;18.908;2022-07-23T02:20:37;98047.97;;;20.08;55.95
21401;BME280;18038;50.166;18.908;2022-07-23T02:23:42;98057.97;;;20.07;55.93
21401;BME280;18038;50.166;18.908;2022-07-23T02:26:51;98054.41;;;20.01;56.33
21401;BME280;18038;50.166;18.908;2022-07-23T02:29:57;98055.47;;;20.00;56.66
21401;BME280;18038;50.166;18.908;2022-07-23T02:33:18;98052.06;;;19.88;56.18
21401;BME280;18038;50.166;18.908;2022-07-23T02:36:25;98042.50;;;19.80;56.70
21401;BME280;18038;50.166;18.908;2022-07-23T02:39:33;98038.91;;;19.75;56.86
21401;BME280;18038;50.166;18.908;2022-07-23T02:42:41;98040.50;;;19.71;57.41
21401;BME280;18038;50.166;18.908;2022-07-23T02:45:48;98040.56;;;19.76;57.10
21401;BME280;18038;50.166;18.908;2022-07-23T02:48:54;98033.19;;;19.71;57.22
21401;BME280;18038;50.166;18.908;2022-07-23T02:52:05;98036.88;;;19.60;57.67
21401;BME280;18038;50.166;18.908;2022-07-23T02:55:12;98030.13;;;19.63;57.38
21401;BME280;18038;50.166;18.908;2022-07-23T02:58:21;98026.41;;;19.69;57.30
21401;BME280;18038;50.166;18.908;2022-07-23T03:01:28;98033.78;;;19.73;56.81
21401;BME280;18038;50.166;18.908;2022-07-23T03:04:36;98021.59;;;19.76;56.76
21401;BME280;18038;50.166;18.908;2022-07-23T03:07:46;98025.66;;;19.73;56.48
21401;BME280;18038;50.166;18.908;2022-07-23T03:10:56;98024.25;;;19.71;56.80
21401;BME280;18038;50.166;18.908;2022-07-23T03:14:04;98037.75;;;19.44;56.60
21401;BME280;18038;50.166;18.908;2022-07-23T03:17:21;98021.50;;;19.44;56.37
21401;BME280;18038;50.166;18.908;2022-07-23T03:20:27;98028.88;;;19.48;56.12
21401;BME280;18038;50.166;18.908;2022-07-23T03:23:33;98030.34;;;19.34;55.51
21401;BME280;18038;50.166;18.908;2022-07-23T03:26:38;98024.34;;;19.32;55.27
21401;BME280;18038;50.166;18.908;2022-07-23T03:29:47;98026.63;;;19.40;54.65
21401;BME280;18038;50.166;18.908;2022-07-23T03:32:55;98018.81;;;19.22;55.23
21401;BME280;18038;50.166;18.908;2022-07-23T03:36:08;98018.63;;;18.89;57.11
21401;BME280;18038;50.166;18.908;2022-07-23T03:39:23;98021.44;;;18.61;59.01
21401;BME280;18038;50.166;18.908;2022-07-23T03:42:29;98019.63;;;18.33;60.65
21401;BME280;18038;50.166;18.908;2022-07-23T03:45:40;98020.69;;;18.15;61.45
21401;BME280;18038;50.166;18.908;2022-07-23T03:48:51;98027.81;;;18.04;62.28
21401;BME280;18038;50.166;18.908;2022-07-23T03:52:01;98038.94;;;18.07;62.50
21401;BME280;18038;50.166;18.908;2022-07-23T03:55:07;98035.19;;;18.25;61.73
21401;BME280;18038;50.166;18.908;2022-07-23T03:58:13;98034.91;;;18.72;60.71
21401;BME280;18038;50.166;18.908;2022-07-23T04:01:37;98034.72;;;19.18;59.22
21401;BME280;18038;50.166;18.908;2022-07-23T04:04:43;98040.13;;;19.84;56.54
21401;BME280;18038;50.166;18.908;2022-07-23T04:07:48;98041.28;;;20.20;55.67
21401;BME280;18038;50.166;18.908;2022-07-23T04:10:55;98037.75;;;20.84;53.91
21401;BME280;18038;50.166;18.908;2022-07-23T04:14:00;98032.41;;;21.00;53.09
21401;BME280;18038;50.166;18.908;2022-07-23T04:17:08;98036.75;;;21.48;52.09
21401;BME280;18038;50.166;18.908;2022-07-23T04:20:16;98030.09;;;22.12;50.31
21401;BME280;18038;50.166;18.908;2022-07-23T04:23:34;98039.09;;;22.64;48.54
21401;BME280;18038;50.166;18.908;2022-07-23T04:26:41;98046.75;;;22.67;48.32
21401;BME280;18038;50.166;18.908;2022-07-23T04:29:46;98040.75;;;22.70;47.75
21401;BME280;18038;50.166;18.908;2022-07-23T04:32:56;98032.78;;;23.15;47.64
21401;BME280;18038;50.166;18.908;2022-07-23T04:36:03;98029.38;;;23.53;45.93
21401;BME280;18038;50.166;18.908;2022-07-23T04:39:09;98027.19;;;23.45;45.21
21401;BME280;18038;50.166;18.908;2022-07-23T04:42:16;98033.31;;;23.82;44.51
21401;BME280;18038;50.166;18.908;2022-07-23T04:45:22;98029.16;;;23.94;44.07
21401;BME280;18038;50.166;18.908;2022-07-23T04:48:33;98028.44;;;24.23;44.32
21401;BME280;18038;50.166;18.908;2022-07-23T04:51:44;98031.00;;;25.02;42.10
21401;BME280;18038;50.166;18.908;2022-07-23T04:54:50;98033.56;;;25.17;41.90
21401;BME280;18038;50.166;18.908;2022-07-23T04:57:56;98028.84;;;24.99;41.10
21401;BME280;18038;50.166;18.908;2022-07-23T05:01:02;98022.72;;;24.54;42.91
21401;BME280;18038;50.166;18.908;2022-07-23T05:04:13;98017.66;;;24.71;42.81
21401;BME280;18038;50.166;18.908;2022-07-23T05:07:21;98020.19;;;24.92;42.95
21401;BME280;18038;50.166;18.908;2022-07-23T05:10:27;98022.47;;;24.79;43.06
21401;BME280;18038;50.166;18.908;2022-07-23T05:13:42;98024.63;;;24.53;44.24
21401;BME280;18038;50.166;18.908;2022-07-23T05:16:49;98026.75;;;24.61;44.38
21401;BME280;18038;50.166;18.908;2022-07-23T05:20:03;98028.34;;;24.62;44.56
21401;BME280;18038;50.166;18.908;2022-07-23T05:23:10;98027.94;;;24.79;45.25
21401;BME280;18038;50.166;18.908;2022-07-23T05:26:20;98029.09;;;25.26;44.08
21401;BME280;18038;50.166;18.908;2022-07-23T05:29:26;98029.09;;;25.26;44.31
21401;BME280;18038;50.166;18.908;2022-07-23T05:32:35;98029.75;;;25.42;42.87
21401;BME280;18038;50.166;18.908;2022-07-23T05:35:49;98025.53;;;26.12;41.08
21401;BME280;18038;50.166;18.908;2022-07-23T05:39:06;98029.31;;;26.82;39.67
21401;BME280;18038;50.166;18.908;2022-07-23T05:42:12;98023.13;;;26.43;40.00
21401;BME280;18038;50.166;18.908;2022-07-23T05:45:18;98013.47;;;26.65;40.08
21401;BME280;18038;50.166;18.908;2022-07-23T05:48:25;98008.97;;;28.29;36.37
21401;BME280;18038;50.166;18.908;2022-07-23T05:51:50;98011.72;;;28.83;35.64
21401;BME280;18038;50.166;18.908;2022-07-23T05:55:07;98000.28;;;28.90;34.12
21401;BME280;18038;50.166;18.908;2022-07-23T05:58:22;97987.72;;;28.66;35.03
21401;BME280;18038;50.166;18.908;2022-07-23T06:01:27;97981.25;;;29.42;34.14
21401;BME280;18038;50.166;18.908;2022-07-23T06:04:44;97981.63;;;29.75;34.48
21401;BME280;18038;50.166;18.908;2022-07-23T06:08:02;97976.22;;;29.44;35.80
21401;BME280;18038;50.166;18.908;2022-07-23T06:11:12;97974.69;;;29.95;34.36
21401;BME280;18038;50.166;18.908;2022-07-23T06:14:18;97976.72;;;30.68;32.88
21401;BME280;18038;50.166;18.908;2022-07-23T06:17:33;97975.59;;;31.07;31.88
21401;BME280;18038;50.166;18.908;2022-07-23T06:20:41;97968.13;;;31.37;31.45
21401;BME280;18038;50.166;18.908;2022-07-23T06:23:54;97966.19;;;31.68;30.34
21401;BME280;18038;50.166;18.908;2022-07-23T06:27:04;97973.69;;;32.09;29.81
21401;BME280;18038;50.166;18.908;2022-07-23T06:30:12;97976.59;;;32.58;29.38
21401;BME280;18038;50.166;18.908;2022-07-23T06:33:21;97987.28;;;33.05;29.16
21401;BME280;18038;50.166;18.908;2022-07-23T06:36:26;97985.06;;;32.99;28.93
21401;BME280;18038;50.166;18.908;2022-07-23T06:39:35;97991.84;;;31.89;30.41
21401;BME280;18038;50.166;18.908;2022-07-23T06:42:47;97983.53;;;31.68;31.53
21401;BME280;18038;50.166;18.908;2022-07-23T06:45:58;97981.19;;;31.58;31.15
21401;BME280;18038;50.166;18.908;2022-07-23T06:49:06;97977.94;;;30.15;33.20
21401;BME280;18038;50.166;18.908;2022-07-23T06:52:21;97981.72;;;30.66;32.15
21401;BME280;18038;50.166;18.908;2022-07-23T06:55:30;97979.34;;;30.38;32.68
21401;BME280;18038;50.166;18.908;2022-07-23T06:58:40;97982.72;;;30.70;32.82
21401;BME280;18038;50.166;18.908;2022-07-23T07:01:46;97977.63;;;31.78;29.35
21401;BME280;18038;50.166;18.908;2022-07-23T07:04:52;97984.84;;;32.13;29.26
21401;BME280;18038;50.166;18.908;2022-07-23T07:08:12;97969.41;;;32.45;29.11
21401;BME280;18038;50.166;18.908;2022-07-23T07:11:25;97967.66;;;32.07;29.11
21401;BME280;18038;50.166;18.908;2022-07-23T07:14:38;97971.91;;;32.38;29.05
21401;BME280;18038;50.166;18.908;2022-07-23T07:18:00;97968.94;;;32.88;28.79
21401;BME280;18038;50.166;18.908;2022-07-23T07:21:11;97973.06;;;31.83;29.95
21401;BME280;18038;50.166;18.908;2022-07-23T07:24:17;97977.16;;;32.18;29.56
21401;BME280;18038;50.166;18.908;2022-07-23T07:27:28;97978.41;;;33.37;27.72
21401;BME280;18038;50.166;18.908;2022-07-23T07:30:34;97979.91;;;33.34;27.47
21401;BME280;18038;50.166;18.908;2022-07-23T07:33:45;97978.88;;;33.63;26.84
21401;BME280;18038;50.166;18.908;2022-07-23T07:36:50;97990.09;;;32.60;27.81
21401;BME280;18038;50.166;18.908;2022-07-23T07:39:56;97997.34;;;33.10;27.26
21401;BME280;18038;50.166;18.908;2022-07-23T07:43:10;97999.75;;;33.36;27.11
21401;BME280;18038;50.166;18.908;2022-07-23T07:46:18;97992.50;;;33.56;27.46
21401;BME280;18038;50.166;18.908;2022-07-23T07:49:26;97994.44;;;33.43;27.86
21401;BME280;18038;50.166;18.908;2022-07-23T07:52:36;97993.84;;;33.74;27.35
21401;BME280;18038;50.166;18.908;2022-07-23T07:55:42;97994.69;;;34.31;26.20
21401;BME280;18038;50.166;18.908;2022-07-23T07:58:55;97992.50;;;33.96;26.34
21401;BME280;18038;50.166;18.908;2022-07-23T08:02:21;97994.56;;;33.35;27.05
21401;BME280;18038;50.166;18.908;2022-07-23T08:05:29;97990.25;;;33.74;26.02
21401;BME280;18038;50.166;18.908;2022-07-23T08:08:35;97984.19;;;34.09;26.69
21401;BME280;18038;50.166;18.908;2022-07-23T08:11:47;97976.16;;;34.48;25.77
21401;BME280;18038;50.166;18.908;2022-07-23T08:14:56;97966.75;;;34.08;26.20
21401;BME280;18038;50.166;18.908;2022-07-23T08:18:11;97951.13;;;33.10;28.33
21401;BME280;18038;50.166;18.908;2022-07-23T08:21:25;97931.81;;;31.35;30.29
21401;BME280;18038;50.166;18.908;2022-07-23T08:24:31;97939.50;;;31.51;29.12
21401;BME280;18038;50.166;18.908;2022-07-23T08:27:36;97942.34;;;30.74;31.04
21401;BME280;18038;50.166;18.908;2022-07-23T08:30:45;97951.53;;;30.14;31.86
21401;BME280;18038;50.166;18.908;2022-07-23T08:33:52;97954.53;;;31.53;29.23
21401;BME280;18038;50.166;18.908;2022-07-23T08:36:59;97950.13;;;32.24;28.01
21401;BME280;18038;50.166;18.908;2022-07-23T08:40:05;97949.31;;;32.23;27.55
21401;BME280;18038;50.166;18.908;2022-07-23T08:43:21;97945.09;;;32.84;26.72
21401;BME280;18038;50.166;18.908;2022-07-23T08:46:32;97956.84;;;33.05;26.53
21401;BME280;18038;50.166;18.908;2022-07-23T08:49:46;97962.47;;;33.46;26.22
21401;BME280;18038;50.166;18.908;2022-07-23T08:52:53;97955.28;;;32.59;26.77
21401;BME280;18038;50.166;18.908;2022-07-23T08:56:02;97955.06;;;32.64;26.49
21401;BME280;18038;50.166;18.908;2022-07-23T08:59:16;97958.94;;;33.08;26.64
21401;BME280;18038;50.166;18.908;2022-07-23T09:02:24;97958.88;;;32.26;26.68
21401;BME280;18038;50.166;18.908;2022-07-23T09:05:30;97962.03;;;32.95;26.38
21401;BME280;18038;50.166;18.908;2022-07-23T09:08:38;97960.31;;;33.27;25.85
21401;BME280;18038;50.166;18.908;2022-07-23T09:11:47;97957.28;;;33.57;25.67
21401;BME280;18038;50.166;18.908;2022-07-23T09:15:19;97953.38;;;34.10;25.29
21401;BME280;18038;50.166;18.908;2022-07-23T09:18:37;97959.91;;;34.62;23.84
21401;BME280;18038;50.166;18.908;2022-07-23T09:21:49;97963.56;;;34.22;23.71
21401;BME280;18038;50.166;18.908;2022-07-23T09:25:10;97952.53;;;34.10;23.27
21401;BME280;18038;50.166;18.908;2022-07-23T09:28:17;97955.56;;;33.52;23.55
21401;BME280;18038;50.166;18.908;2022-07-23T09:31:41;97959.41;;;35.04;22.66
21401;BME280;18038;50.166;18.908;2022-07-23T09:34:55;97953.06;;;35.39;21.18
21401;BME280;18038;50.166;18.908;2022-07-23T09:38:04;97950.78;;;34.93;21.60
21401;BME280;18038;50.166;18.908;2022-07-23T09:41:11;97949.13;;;34.29;22.05
21401;BME280;18038;50.166;18.908;2022-07-23T09:44:19;97946.06;;;32.09;25.03
21401;BME280;18038;50.166;18.908;2022-07-23T09:47:31;97946.66;;;31.94;26.29
21401;BME280;18038;50.166;18.908;2022-07-23T09:50:40;97944.28;;;32.38;25.50
21401;BME280;18038;50.166;18.908;2022-07-23T09:53:46;97945.28;;;32.00;26.01
21401;BME280;18038;50.166;18.908;2022-07-23T09:56:53;97940.16;;;32.11;26.34
21401;BME280;18038;50.166;18.908;2022-07-23T10:00:08;97934.22;;;32.21;26.72
21401;BME280;18038;50.166;18.908;2022-07-23T10:03:23;97930.34;;;32.92;26.47
21401;BME280;18038;50.166;18.908;2022-07-23T10:07:09;97934.16;;;33.12;25.41
21401;BME280;18038;50.166;18.908;2022-07-23T10:10:33;97932.66;;;33.15;25.75
21401;BME280;18038;50.166;18.908;2022-07-23T10:13:43;97931.56;;;32.12;26.89
21401;BME280;18038;50.166;18.908;2022-07-23T10:17:07;97936.06;;;31.96;27.08
21401;BME280;18038;50.166;18.908;2022-07-23T10:20:13;97920.00;;;32.56;25.56
21401;BME280;18038;50.166;18.908;2022-07-23T10:23:28;97926.28;;;33.39;27.16
21401;BME280;18038;50.166;18.908;2022-07-23T10:26:51;97922.69;;;33.50;24.62
21401;BME280;18038;50.166;18.908;2022-07-23T10:30:20;97917.47;;;32.51;25.20
21401;BME280;18038;50.166;18.908;2022-07-23T10:33:46;97910.03;;;33.25;24.98
21401;BME280;18038;50.166;18.908;2022-07-23T10:37:13;97913.44;;;34.27;24.38
21401;BME280;18038;50.166;18.908;2022-07-23T10:40:32;97912.59;;;33.18;23.62
21401;BME280;18038;50.166;18.908;2022-07-23T10:43:38;97912.38;;;32.40;24.54
21401;BME280;18038;50.166;18.908;2022-07-23T10:46:58;97916.47;;;33.41;24.71
21401;BME280;18038;50.166;18.908;2022-07-23T10:50:24;97907.06;;;33.70;22.79
21401;BME280;18038;50.166;18.908;2022-07-23T10:53:54;97907.91;;;34.43;23.33
21401;BME280;18038;50.166;18.908;2022-07-23T10:57:18;97901.72;;;35.13;22.59
21401;BME280;18038;50.166;18.908;2022-07-23T11:00:27;97900.78;;;34.74;22.79
21401;BME280;18038;50.166;18.908;2022-07-23T11:03:56;97889.59;;;34.54;22.32
21401;BME280;18038;50.166;18.908;2022-07-23T11:07:07;97894.75;;;33.96;22.20
21401;BME280;18038;50.166;18.908;2022-07-23T11:10:32;97886.34;;;34.36;22.34
21401;BME280;18038;50.166;18.908;2022-07-23T11:13:48;97879.91;;;35.12;21.77
21401;BME280;18038;50.166;18.908;2022-07-23T11:16:56;97878.22;;;35.62;21.60
21401;BME280;18038;50.166;18.908;2022-07-23T11:20:17;97889.00;;;33.61;22.22
21401;BME280;18038;50.166;18.908;2022-07-23T11:27:06;97869.47;;;33.17;23.23
21401;BME280;18038;50.166;18.908;2022-07-23T11:30:39;97862.22;;;33.12;22.53
21401;BME280;18038;50.166;18.908;2022-07-23T11:34:24;97869.63;;;33.61;23.29
21401;BME280;18038;50.166;18.908;2022-07-23T11:37:36;97855.50;;;33.25;23.51
21401;BME280;18038;50.166;18.908;2022-07-23T11:40:45;97852.22;;;33.60;23.27
21401;BME280;18038;50.166;18.908;2022-07-23T11:43:52;97857.44;;;33.78;22.71
21401;BME280;18038;50.166;18.908;2022-07-23T11:47:02;97850.84;;;33.82;23.50
21401;BME280;18038;50.166;18.908;2022-07-23T11:50:10;97847.13;;;34.50;22.40
21401;BME280;18038;50.166;18.908;2022-07-23T11:53:22;97848.63;;;34.79;22.65
21401;BME280;18038;50.166;18.908;2022-07-23T11:56:28;97835.03;;;34.43;22.63
21401;BME280;18038;50.166;18.908;2022-07-23T11:59:36;97831.47;;;34.26;23.02
21401;BME280;18038;50.166;18.908;2022-07-23T12:02:52;97835.69;;;33.51;23.62
21401;BME280;18038;50.166;18.908;2022-07-23T12:06:05;97824.56;;;34.36;23.95
21401;BME280;18038;50.166;18.908;2022-07-23T12:09:11;97827.97;;;34.45;22.67
21401;BME280;18038;50.166;18.908;2022-07-23T12:12:18;97837.09;;;34.30;23.71
21401;BME280;18038;50.166;18.908;2022-07-23T12:15:27;97826.53;;;33.91;23.14
21401;BME280;18038;50.166;18.908;2022-07-23T12:18:38;97830.78;;;33.73;23.73
21401;BME280;18038;50.166;18.908;2022-07-23T12:21:44;97826.75;;;33.42;24.00
21401;BME280;18038;50.166;18.908;2022-07-23T12:24:55;97815.31;;;33.16;24.73
21401;BME280;18038;50.166;18.908;2022-07-23T12:28:05;97819.03;;;33.07;25.22
21401;BME280;18038;50.166;18.908;2022-07-23T12:31:26;97818.81;;;32.76;26.15
21401;BME280;18038;50.166;18.908;2022-07-23T12:34:44;97811.31;;;32.64;26.23
21401;BME280;18038;50.166;18.908;2022-07-23T12:37:51;97804.25;;;32.30;25.36
21401;BME280;18038;50.166;18.908;2022-07-23T12:40:59;97792.53;;;32.20;26.16
21401;BME280;18038;50.166;18.908;2022-07-23T12:44:14;97793.50;;;32.03;25.95
21401;BME280;18038;50.166;18.908;2022-07-23T12:47:55;97787.22;;;31.82;26.18
21401;BME280;18038;50.166;18.908;2022-07-23T12:51:15;97779.69;;;31.58;26.26
21401;BME280;18038;50.166;18.908;2022-07-23T12:54:27;97784.94;;;31.51;27.90
21401;BME280;18038;50.166;18.908;2022-07-23T12:57:46;97787.03;;;31.54;28.58
21401;BME280;18038;50.166;18.908;2022-07-23T13:00:54;97786.44;;;31.48;28.23
21401;BME280;18038;50.166;18.908;2022-07-23T13:04:11;97784.94;;;31.51;27.77
21401;BME280;18038;50.166;18.908;2022-07-23T13:07:26;97783.44;;;31.53;27.83
21401;BME280;18038;50.166;18.908;2022-07-23T13:10:34;97789.88;;;31.24;28.34
21401;BME280;18038;50.166;18.908;2022-07-23T13:13:41;97798.34;;;30.98;27.62
21401;BME280;18038;50.166;18.908;2022-07-23T13:16:48;97790.78;;;30.86;27.76
21401;BME280;18038;50.166;18.908;2022-07-23T13:19:54;97789.75;;;30.70;30.41
21401;BME280;18038;50.166;18.908;2022-07-23T13:23:02;97777.25;;;30.72;31.36
21401;BME280;18038;50.166;18.908;2022-07-23T13:26:08;97770.41;;;30.49;32.27
21401;BME280;18038;50.166;18.908;2022-07-23T13:29:16;97769.84;;;30.35;33.10
21401;BME280;18038;50.166;18.908;2022-07-23T13:32:29;97770.75;;;30.09;32.86
21401;BME280;18038;50.166;18.908;2022-07-23T13:35:35;97765.94;;;29.89;34.37
21401;BME280;18038;50.166;18.908;2022-07-23T13:38:44;97764.41;;;29.61;35.92
21401;BME280;18038;50.166;18.908;2022-07-23T13:41:50;97772.34;;;29.54;35.71
21401;BME280;18038;50.166;18.908;2022-07-23T13:44:55;97792.38;;;29.46;37.16
21401;BME280;18038;50.166;18.908;2022-07-23T13:48:05;97789.31;;;29.04;36.01
21401;BME280;18038;50.166;18.908;2022-07-23T13:51:18;97800.13;;;28.92;36.44
21401;BME280;18038;50.166;18.908;2022-07-23T13:54:35;97806.25;;;28.80;36.15
21401;BME280;18038;50.166;18.908;2022-07-23T13:57:56;97824.97;;;28.69;37.14
21401;BME280;18038;50.166;18.908;2022-07-23T14:01:24;97816.88;;;28.64;38.29
21401;BME280;18038;50.166;18.908;2022-07-23T14:04:47;97807.19;;;28.67;38.18
21401;BME280;18038;50.166;18.908;2022-07-23T14:07:56;97815.25;;;28.54;37.64
21401;BME280;18038;50.166;18.908;2022-07-23T14:11:05;97816.69;;;27.89;38.78
21401;BME280;18038;50.166;18.908;2022-07-23T14:14:11;97821.00;;;25.52;46.91
21401;BME280;18038;50.166;18.908;2022-07-23T14:17:16;97830.75;;;24.82;49.17
21401;BME280;18038;50.166;18.908;2022-07-23T14:20:25;97853.94;;;25.04;48.79
21401;BME280;18038;50.166;18.908;2022-07-23T14:23:31;97887.00;;;25.45;49.32
21401;BME280;18038;50.166;18.908;2022-07-23T14:26:51;97880.34;;;25.52;49.88
21401;BME280;18038;50.166;18.908;2022-07-23T14:30:06;97842.34;;;24.93;55.23
21401;BME280;18038;50.166;18.908;2022-07-23T14:33:24;97839.34;;;24.71;56.88
21401;BME280;18038;50.166;18.908;2022-07-23T14:36:34;97840.66;;;24.73;58.28
21401;BME280;18038;50.166;18.908;2022-07-23T14:39:42;97837.00;;;24.83;55.18
21401;BME280;18038;50.166;18.908;2022-07-23T14:43:02;97850.00;;;24.91;55.54
21401;BME280;18038;50.166;18.908;2022-07-23T14:46:18;97854.59;;;25.15;55.21
21401;BME280;18038;50.166;18.908;2022-07-23T14:49:35;97849.53;;;25.27;55.00
21401;BME280;18038;50.166;18.908;2022-07-23T14:52:41;97856.41;;;25.43;53.96
21401;BME280;18038;50.166;18.908;2022-07-23T14:55:50;97860.16;;;25.28;53.62
21401;BME280;18038;50.166;18.908;2022-07-23T14:59:00;97868.41;;;25.47;52.86
21401;BME280;18038;50.166;18.908;2022-07-23T15:02:08;97859.66;;;25.45;52.23
21401;BME280;18038;50.166;18.908;2022-07-23T15:05:14;97851.78;;;25.39;50.76
21401;BME280;18038;50.166;18.908;2022-07-23T15:08:27;97847.53;;;25.52;50.93
21401;BME280;18038;50.166;18.908;2022-07-23T15:11:33;97847.88;;;25.26;50.16
21401;BME280;18038;50.166;18.908;2022-07-23T15:14:43;97835.19;;;25.35;50.29
21401;BME280;18038;50.166;18.908;2022-07-23T15:17:49;97840.34;;;25.37;49.67
21401;BME280;18038;50.166;18.908;2022-07-23T15:21:03;97840.53;;;25.26;50.33
21401;BME280;18038;50.166;18.908;2022-07-23T15:24:10;97838.00;;;25.11;50.12
21401;BME280;18038;50.166;18.908;2022-07-23T15:27:16;97845.34;;;24.92;50.07
21401;BME280;18038;50.166;18.908;2022-07-23T15:30:24;97839.69;;;25.07;49.54
21401;BME280;18038;50.166;18.908;2022-07-23T15:33:43;97855.50;;;25.29;49.92
21401;BME280;18038;50.166;18.908;2022-07-23T15:36:50;97850.94;;;25.05;49.01
21401;BME280;18038;50.166;18.908;2022-07-23T15:39:56;97843.75;;;24.43;49.23
21401;BME280;18038;50.166;18.908;2022-07-23T15:43:07;97853.63;;;24.38;50.50
21401;BME280;18038;50.166;18.908;2022-07-23T15:46:22;97850.25;;;24.47;50.17
21401;BME280;18038;50.166;18.908;2022-07-23T15:49:30;97851.31;;;24.51;50.78
21401;BME280;18038;50.166;18.908;2022-07-23T15:52:37;97856.75;;;24.51;50.77
21401;BME280;18038;50.166;18.908;2022-07-23T15:55:45;97855.25;;;24.39;51.02
21401;BME280;18038;50.166;18.908;2022-07-23T15:58:50;97854.59;;;24.24;52.14
21401;BME280;18038;50.166;18.908;2022-07-23T16:01:59;97855.94;;;24.26;51.22
21401;BME280;18038;50.166;18.908;2022-07-23T16:05:06;97838.81;;;23.91;51.95
21401;BME280;18038;50.166;18.908;2022-07-23T16:08:26;97848.09;;;24.19;51.85
21401;BME280;18038;50.166;18.908;2022-07-23T16:11:32;97857.28;;;24.29;51.55
21401;BME280;18038;50.166;18.908;2022-07-23T16:14:38;97857.97;;;24.10;52.63
21401;BME280;18038;50.166;18.908;2022-07-23T16:17:47;97863.38;;;24.21;52.05
21401;BME280;18038;50.166;18.908;2022-07-23T16:20:53;97851.88;;;24.24;51.34
21401;BME280;18038;50.166;18.908;2022-07-23T16:24:05;97862.00;;;24.23;51.01
21401;BME280;18038;50.166;18.908;2022-07-23T16:27:12;97869.34;;;24.23;51.13
21401;BME280;18038;50.166;18.908;2022-07-23T16:30:18;97865.13;;;24.35;50.47
21401;BME280;18038;50.166;18.908;2022-07-23T16:33:28;97862.84;;;24.18;51.47
21401;BME280;18038;50.166;18.908;2022-07-23T16:36:33;97866.94;;;24.16;52.08
21401;BME280;18038;50.166;18.908;2022-07-23T16:39:47;97868.41;;;24.03;51.77
21401;BME280;18038;50.166;18.908;2022-07-23T16:42:53;97862.78;;;23.94;52.32